PST,Max TemperatureF,Mean TemperatureF,Min TemperatureF,Max Dew PointF,MeanDew PointF,Min DewpointF,Max Humidity, Mean Humidity, Min Humidity, Max Sea Level PressureIn, Mean Sea Level PressureIn, Min Sea Level PressureIn, Max VisibilityMiles, Mean VisibilityMiles, Min VisibilityMiles, Max Wind SpeedMPH, Mean Wind SpeedMPH, Max Gust SpeedMPH,PrecipitationIn, CloudCover, Events, WindDirDegrees
2014-2-1,67,55,42,38,32,24,76,48,20,30.06,30.00,29.95,10,10,10,12,1,14,0.00,0,,206
2014-2-2,63,54,44,46,35,21,65,44,22,30.09,30.03,29.96,10,10,8,15,4,23,0.00,3,Rain,122
2014-2-3,64,55,45,45,43,38,89,68,46,29.99,29.93,29.89,10,10,6,13,3,26,0.04,2,Rain,110
2014-2-4,64,56,48,47,44,41,80,64,48,30.08,30.03,29.99,10,10,10,10,5,17,0.00,5,,125
2014-2-5,66,56,46,45,43,40,82,61,40,30.13,30.06,30.00,10,10,9,13,2,21,0.00,1,,238
2014-2-6,60,56,52,52,49,43,77,70,62,30.08,30.02,29.98,10,7,2,8,3,28,0.02,7,Rain,120
2014-2-7,64,58,52,52,50,45,100,76,52,30.21,30.11,30.03,10,6,2,12,1,,0.06,6,Rain,234
2014-2-8,67,59,50,54,50,46,93,71,48,30.27,30.22,30.18,10,10,8,10,2,,0.00,4,,271
2014-2-9,67,63,58,54,51,48,80,68,56,30.21,30.16,30.09,10,9,6,9,2,,0.00,5,,183
2014-2-10,69,61,52,55,52,48,89,74,58,30.14,30.08,30.00,10,10,9,10,2,12,0.00,2,,153
2014-2-11,77,64,51,55,51,47,100,68,36,30.09,30.05,30.01,10,5,0,12,1,14,0.00,3,Fog,256
2014-2-12,82,66,50,51,47,42,96,62,28,30.13,30.07,30.02,10,8,5,9,1,13,0.00,0,,193
2014-2-13,81,65,49,49,45,38,80,51,21,30.07,30.01,29.97,10,10,7,7,2,,0.00,0,,191
2014-2-14,80,64,48,51,46,41,80,54,28,30.05,30.00,29.94,10,9,7,9,1,13,0.00,0,,202
2014-2-15,80,65,49,53,48,41,89,58,27,30.02,29.98,29.94,10,8,6,8,2,11,0.00,0,,190
2014-2-16,73,64,54,55,52,48,86,68,49,30.07,30.01,29.96,10,9,6,9,3,12,0.00,0,,175
2014-2-17,69,59,49,54,51,45,93,74,55,30.07,30.04,29.98,10,8,1,12,3,15,0.00,4,,145
2014-2-18,70,63,56,51,50,48,77,62,47,30.06,30.01,29.95,10,7,4,10,3,15,0.00,3,,189
2014-2-19,68,60,51,52,50,48,89,73,56,30.00,29.96,29.89,10,6,2,14,2,19,0.00,4,,172
2014-2-20,84,66,47,50,45,35,89,54,18,30.03,29.96,29.93,10,8,4,8,2,22,0.00,0,,225
2014-2-21,79,66,52,55,42,33,67,46,25,29.99,29.93,29.86,10,9,5,9,2,13,0.00,0,,211
2014-2-22,76,62,48,51,44,36,89,57,25,29.93,29.90,29.85,10,9,1,12,2,14,0.00,0,,190
2014-2-23,75,61,47,55,49,40,100,67,33,30.00,29.95,29.89,10,5,0,9,2,14,0.00,4,Fog,186
2014-2-24,74,62,50,54,50,43,89,62,35,30.03,29.98,29.91,10,7,4,13,2,16,0.00,3,,183
2014-2-25,71,64,56,52,50,48,77,62,47,30.05,30.00,29.96,10,10,7,13,4,17,0.00,4,,181
2014-2-26,68,62,55,52,50,46,77,65,52,30.07,30.04,30.01,10,10,10,13,4,18,0.00,7,,151
2014-2-27,71,64,57,58,55,48,93,70,47,30.02,29.96,29.86,10,6,1,12,6,16,0.76,6,Rain,112
2014-2-28,64,61,58,61,57,52,93,89,84,29.83,29.72,29.65,10,6,1,23,9,35,1.19,8,Rain,171